KSAF/SAF METAR and TAF weather

Enter ICAO airport designator
Station Type Date Time Source
KSAF METAR 2019/06/26 17:53 UTC NOAA

KSAF 261753Z VRB04KT 10SM CLR 28/M04 A3024 RMK AO2 SLP137 T02831044 10289 20128 56006


Station Type Date Time Source
KSAF Decoded METAR 2019/06/26 17:53 UTC NOAA

SANTA FE COUNTY MUNICIPAL, NM, United States (KSAF) 35-37N 106-05W 1930M
Jun 26, 2019 - 01:53 PM EDT / 2019.06.26 1753 UTC
Wind: Variable at 5 MPH (4 KT):0
Visibility: 10 mile(s):0
Sky conditions: clear
Temperature: 82.9 F (28.3 C)
Dew Point: 24.1 F (-4.4 C)
Relative Humidity: 11%
Pressure (altimeter): 30.24 in. Hg (1024 hPa)
Pressure tendency: 0.02 inches (0.6 hPa) lower than three hours ago
ob: KSAF 261753Z VRB04KT 10SM CLR 28/M04 A3024 RMK AO2 SLP137 T02831044 10289 20128 56006
cycle: 18

Station Type Date Time Source
KSAF TAF 2019/06/26 18:33 UTC NOAA

TAF KSAF 261731Z 2618/2718 21008G15KT P6SM SCT200
FM262000 22015G23KT P6SM SCT110
FM262300 19015G23KT P6SM VCSH SCT100
TEMPO 2623/2701 VRB24G33KT
FM270200 11007KT P6SM SCT100

Example: see airport list